Terminal Aerodrome Forecast
Issued by NWS

Home | Current Version | Previous Version | Graphics & Text | Print | Product List | Glossary On
Versions: 1 2 3 4 5 6 7 8 9 10 11 12 13 14 15 16 17 18
213
FTUS43 KMPX 241248 AAA
TAFAXN
TAF AMD
KAXN 241248Z 2413/2512 36006KT 5SM BR SCT006 OVC012
     FM241600 02012KT P6SM BKN012
     FM241900 02010KT P6SM SCT015 BKN200
     FM250600 09006KT P6SM BKN015=

USA.gov is the U.S. government's official web portal to all federal, state and local government web resources and services.